Time,TemperatureF,DewpointF,PressureIn,WindDirection,WindDirectionDegrees,WindSpeedMPH,WindSpeedGustMPH,Humidity,HourlyPrecipIn,Conditions,Clouds,dailyrainin,SoftwareType,DateUTC
2013-09-18 00:00:00,53.1,44.0,30.26,East,97,1.0,6.0,71,0.00,,---,0.00,VWS V14.00,2013-09-18 04:00:00,
2013-09-18 00:01:00,52.9,43.8,30.26,East,97,2.0,5.0,71,0.00,,---,0.00,VWS V14.00,2013-09-18 04:01:00,
2013-09-18 00:06:00,52.8,43.7,30.26,East,97,2.0,5.0,71,0.00,,---,0.00,VWS V14.00,2013-09-18 04:06:00,
2013-09-18 00:11:00,52.6,43.8,30.26,East,97,0.0,5.0,72,0.00,,---,0.00,VWS V14.00,2013-09-18 04:11:00,
2013-09-18 00:16:00,52.4,43.7,30.26,East,97,0.0,5.0,72,0.00,,---,0.00,VWS V14.00,2013-09-18 04:16:00,
2013-09-18 00:21:00,52.2,43.8,30.26,East,97,0.0,5.0,73,0.00,,---,0.00,VWS V14.00,2013-09-18 04:21:00,
2013-09-18 00:26:00,52.1,43.7,30.26,East,97,0.0,5.0,73,0.00,,---,0.00,VWS V14.00,2013-09-18 04:26:00,
2013-09-18 00:30:00,53.3,43.4,30.26,East,96,2.0,5.0,69,0.00,,---,0.00,VWS V14.00,2013-09-18 04:30:00,
2013-09-18 00:31:00,52.0,43.6,30.26,East,96,2.0,2.0,73,0.00,,---,0.00,VWS V14.00,2013-09-18 04:31:00,
2013-09-18 00:36:00,51.9,43.5,30.26,East,97,2.0,4.0,73,0.00,,---,0.00,VWS V14.00,2013-09-18 04:36:00,
2013-09-18 00:41:00,51.8,43.8,30.26,East,96,2.0,4.0,74,0.00,,---,0.00,VWS V14.00,2013-09-18 04:41:00,
2013-09-18 00:46:00,51.6,43.6,30.26,East,97,2.0,5.0,74,0.00,,---,0.00,VWS V14.00,2013-09-18 04:46:00,
2013-09-18 00:51:00,51.4,43.4,30.26,East,97,4.0,5.0,74,0.00,,---,0.00,VWS V14.00,2013-09-18 04:51:00,
2013-09-18 00:56:00,51.2,43.6,30.25,East,97,1.0,5.0,75,0.00,,---,0.00,VWS V14.00,2013-09-18 04:56:00,
2013-09-18 01:00:00,51.2,43.6,30.25,East,96,1.0,5.0,75,0.00,,---,0.00,VWS V14.00,2013-09-18 05:00:00,
2013-09-18 01:01:00,50.9,43.6,30.25,East,97,2.0,4.0,76,0.00,,---,0.00,VWS V14.00,2013-09-18 05:01:00,
2013-09-18 01:06:00,50.7,43.4,30.25,East,97,0.0,4.0,76,0.00,,---,0.00,VWS V14.00,2013-09-18 05:06:00,
2013-09-18 01:11:00,50.4,43.5,30.25,East,97,0.0,4.0,77,0.00,,---,0.00,VWS V14.00,2013-09-18 05:11:00,
2013-09-18 01:16:00,50.1,43.5,30.25,East,97,0.0,4.0,78,0.00,,---,0.00,VWS V14.00,2013-09-18 05:16:00,
2013-09-18 01:21:00,49.9,43.3,30.25,East,97,0.0,4.0,78,0.00,,---,0.00,VWS V14.00,2013-09-18 05:21:00,
2013-09-18 01:26:00,49.8,43.2,30.25,East,97,1.0,4.0,78,0.00,,---,0.00,VWS V14.00,2013-09-18 05:26:00,
2013-09-18 01:30:00,49.7,43.1,30.25,East,97,0.0,4.0,78,0.00,,---,0.00,VWS V14.00,2013-09-18 05:30:00,
2013-09-18 01:31:00,49.6,43.4,30.25,East,97,0.0,1.0,79,0.00,,---,0.00,VWS V14.00,2013-09-18 05:31:00,
2013-09-18 01:36:00,49.5,43.3,30.25,East,97,0.0,1.0,79,0.00,,---,0.00,VWS V14.00,2013-09-18 05:36:00,
2013-09-18 01:41:00,49.3,43.1,30.25,East,97,0.0,1.0,79,0.00,,---,0.00,VWS V14.00,2013-09-18 05:41:00,
2013-09-18 01:46:00,49.1,43.2,30.25,East,97,0.0,1.0,80,0.00,,---,0.00,VWS V14.00,2013-09-18 05:46:00,
2013-09-18 01:51:00,49.1,43.2,30.25,East,97,0.0,1.0,80,0.00,,---,0.00,VWS V14.00,2013-09-18 05:51:00,
2013-09-18 01:56:00,49.0,43.1,30.25,East,97,0.0,1.0,80,0.00,,---,0.00,VWS V14.00,2013-09-18 05:56:00,
2013-09-18 02:00:00,49.0,43.1,30.25,East,97,0.0,1.0,80,0.00,,---,0.00,VWS V14.00,2013-09-18 06:00:00,
2013-09-18 02:01:00,49.0,43.1,30.25,East,97,0.0,1.0,80,0.00,,---,0.00,VWS V14.00,2013-09-18 06:01:00,
2013-09-18 02:06:00,48.9,43.0,30.25,East,97,0.0,1.0,80,0.00,,---,0.00,VWS V14.00,2013-09-18 06:06:00,
2013-09-18 02:11:00,48.8,43.2,30.25,East,97,0.0,1.0,81,0.00,,---,0.00,VWS V14.00,2013-09-18 06:11:00,
2013-09-18 02:16:00,48.7,43.1,30.25,East,97,0.0,1.0,81,0.00,,---,0.00,VWS V14.00,2013-09-18 06:16:00,
2013-09-18 02:21:00,48.6,43.0,30.25,East,97,0.0,1.0,81,0.00,,---,0.00,VWS V14.00,2013-09-18 06:21:00,
2013-09-18 02:26:00,48.3,43.1,30.24,East,97,0.0,1.0,82,0.00,,---,0.00,VWS V14.00,2013-09-18 06:26:00,
2013-09-18 02:30:00,48.3,42.8,30.24,East,97,0.0,1.0,81,0.00,,---,0.00,VWS V14.00,2013-09-18 06:30:00,
2013-09-18 02:31:00,48.1,42.9,30.24,East,97,0.0,0.0,82,0.00,,---,0.00,VWS V14.00,2013-09-18 06:31:00,
2013-09-18 02:36:00,47.8,42.6,30.24,East,97,0.0,0.0,82,0.00,,---,0.00,VWS V14.00,2013-09-18 06:36:00,
2013-09-18 02:41:00,47.6,42.7,30.24,East,97,0.0,0.0,83,0.00,,---,0.00,VWS V14.00,2013-09-18 06:41:00,
2013-09-18 02:46:00,47.4,42.8,30.24,East,97,0.0,0.0,84,0.00,,---,0.00,VWS V14.00,2013-09-18 06:46:00,
2013-09-18 02:51:00,47.1,42.5,30.24,East,97,0.0,0.0,84,0.00,,---,0.00,VWS V14.00,2013-09-18 06:51:00,
2013-09-18 02:56:00,47.0,42.7,30.23,East,96,0.0,0.0,85,0.00,,---,0.00,VWS V14.00,2013-09-18 06:56:00,
2013-09-18 03:00:00,47.0,42.7,30.23,East,97,0.0,0.0,85,0.00,,---,0.00,VWS V14.00,2013-09-18 07:00:00,
2013-09-18 03:01:00,46.8,42.5,30.23,East,97,0.0,0.0,85,0.00,,---,0.00,VWS V14.00,2013-09-18 07:01:00,
2013-09-18 03:06:00,46.6,42.6,30.23,East,97,0.0,0.0,86,0.00,,---,0.00,VWS V14.00,2013-09-18 07:06:00,
2013-09-18 03:11:00,46.4,42.5,30.23,East,97,0.0,0.0,86,0.00,,---,0.00,VWS V14.00,2013-09-18 07:11:00,
2013-09-18 03:16:00,46.1,42.2,30.23,East,97,0.0,0.0,86,0.00,,---,0.00,VWS V14.00,2013-09-18 07:16:00,
2013-09-18 03:21:00,45.8,41.9,30.23,East,97,0.0,0.0,86,0.00,,---,0.00,VWS V14.00,2013-09-18 07:21:00,
2013-09-18 03:26:00,45.6,42.3,30.22,East,97,0.0,0.0,88,0.00,,---,0.00,VWS V14.00,2013-09-18 07:26:00,
2013-09-18 03:30:00,45.6,42.3,30.22,East,97,0.0,0.0,88,0.00,,---,0.00,VWS V14.00,2013-09-18 07:30:00,
2013-09-18 03:31:00,45.6,42.3,30.22,East,97,0.0,0.0,88,0.00,,---,0.00,VWS V14.00,2013-09-18 07:31:00,
2013-09-18 03:36:00,45.4,42.1,30.22,East,96,0.0,0.0,88,0.00,,---,0.00,VWS V14.00,2013-09-18 07:36:00,
2013-09-18 03:41:00,45.4,42.3,30.22,East,97,0.0,0.0,89,0.00,,---,0.00,VWS V14.00,2013-09-18 07:41:00,
2013-09-18 03:46:00,45.4,42.3,30.22,East,97,0.0,0.0,89,0.00,,---,0.00,VWS V14.00,2013-09-18 07:46:00,
2013-09-18 03:51:00,45.4,42.3,30.22,East,97,0.0,0.0,89,0.00,,---,0.00,VWS V14.00,2013-09-18 07:51:00,
2013-09-18 03:56:00,45.3,42.0,30.22,East,97,0.0,0.0,88,0.00,,---,0.00,VWS V14.00,2013-09-18 07:56:00,
2013-09-18 04:00:00,45.3,42.0,30.22,East,97,0.0,0.0,88,0.00,,---,0.00,VWS V14.00,2013-09-18 08:00:00,
2013-09-18 04:01:00,45.0,41.7,30.22,East,97,0.0,0.0,88,0.00,,---,0.00,VWS V14.00,2013-09-18 08:01:00,
2013-09-18 04:06:00,44.8,41.8,30.22,East,97,0.0,0.0,89,0.00,,---,0.00,VWS V14.00,2013-09-18 08:06:00,
2013-09-18 04:11:00,44.7,42.0,30.22,East,97,0.0,1.0,90,0.00,,---,0.00,VWS V14.00,2013-09-18 08:11:00,
2013-09-18 04:16:00,44.7,42.0,30.22,East,97,0.0,1.0,90,0.00,,---,0.00,VWS V14.00,2013-09-18 08:16:00,
2013-09-18 04:21:00,44.7,42.0,30.22,East,97,0.0,1.0,90,0.00,,---,0.00,VWS V14.00,2013-09-18 08:21:00,
2013-09-18 04:26:00,44.7,42.0,30.21,East,97,0.0,1.0,90,0.00,,---,0.00,VWS V14.00,2013-09-18 08:26:00,
2013-09-18 04:30:00,44.7,42.0,30.21,East,97,0.0,1.0,90,0.00,,---,0.00,VWS V14.00,2013-09-18 08:30:00,
2013-09-18 04:31:00,44.6,41.8,30.21,East,97,0.0,0.0,90,0.00,,---,0.00,VWS V14.00,2013-09-18 08:31:00,
2013-09-18 04:36:00,44.5,41.8,30.21,East,97,0.0,0.0,90,0.00,,---,0.00,VWS V14.00,2013-09-18 08:36:00,
2013-09-18 04:41:00,44.5,42.0,30.21,East,97,0.0,0.0,91,0.00,,---,0.00,VWS V14.00,2013-09-18 08:41:00,
2013-09-18 04:46:00,44.6,42.1,30.21,East,97,0.0,0.0,91,0.00,,---,0.00,VWS V14.00,2013-09-18 08:46:00,
2013-09-18 04:51:00,44.6,42.1,30.21,East,97,0.0,0.0,91,0.00,,---,0.00,VWS V14.00,2013-09-18 08:51:00,
2013-09-18 04:56:00,44.5,42.0,30.21,East,97,0.0,0.0,91,0.00,,---,0.00,VWS V14.00,2013-09-18 08:56:00,
2013-09-18 05:00:00,44.5,42.0,30.21,East,97,0.0,0.0,91,0.00,,---,0.00,VWS V14.00,2013-09-18 09:00:00,
2013-09-18 05:01:00,44.5,42.0,30.21,East,97,0.0,0.0,91,0.00,,---,0.00,VWS V14.00,2013-09-18 09:01:00,
2013-09-18 05:06:00,44.3,41.8,30.21,East,97,0.0,0.0,91,0.00,,---,0.00,VWS V14.00,2013-09-18 09:06:00,
2013-09-18 05:11:00,44.2,41.7,30.21,East,97,0.0,0.0,91,0.00,,---,0.00,VWS V14.00,2013-09-18 09:11:00,
2013-09-18 05:16:00,44.1,41.7,30.21,East,97,0.0,0.0,91,0.00,,---,0.00,VWS V14.00,2013-09-18 09:16:00,
2013-09-18 05:21:00,44.0,41.5,30.21,East,97,0.0,0.0,91,0.00,,---,0.00,VWS V14.00,2013-09-18 09:21:00,
2013-09-18 05:26:00,44.0,41.5,30.21,East,97,0.0,1.0,91,0.00,,---,0.00,VWS V14.00,2013-09-18 09:26:00,
2013-09-18 05:30:00,44.0,41.5,30.21,East,97,0.0,1.0,91,0.00,,---,0.00,VWS V14.00,2013-09-18 09:30:00,
2013-09-18 05:31:00,43.9,41.5,30.21,East,97,0.0,0.0,91,0.00,,---,0.00,VWS V14.00,2013-09-18 09:31:00,
2013-09-18 05:36:00,43.8,41.3,30.20,East,97,0.0,0.0,91,0.00,,---,0.00,VWS V14.00,2013-09-18 09:36:00,
2013-09-18 05:41:00,43.9,41.7,30.20,East,97,0.0,0.0,92,0.00,,---,0.00,VWS V14.00,2013-09-18 09:41:00,
2013-09-18 05:46:00,43.9,41.5,30.20,East,97,0.0,0.0,91,0.00,,---,0.00,VWS V14.00,2013-09-18 09:46:00,
2013-09-18 05:51:00,43.8,41.3,30.20,East,97,0.0,0.0,91,0.00,,---,0.00,VWS V14.00,2013-09-18 09:51:00,
2013-09-18 05:56:00,43.7,41.2,30.20,East,97,0.0,0.0,91,0.00,,---,0.00,VWS V14.00,2013-09-18 09:56:00,
2013-09-18 06:00:00,43.7,41.2,30.20,East,97,0.0,0.0,91,0.00,,---,0.00,VWS V14.00,2013-09-18 10:00:00,
2013-09-18 06:01:00,43.6,41.4,30.20,East,97,0.0,0.0,92,0.00,,---,0.00,VWS V14.00,2013-09-18 10:01:00,
2013-09-18 06:06:00,43.4,41.0,30.20,East,97,0.0,0.0,91,0.00,,---,0.00,VWS V14.00,2013-09-18 10:06:00,
2013-09-18 06:11:00,43.4,41.2,30.20,East,97,0.0,0.0,92,0.00,,---,0.00,VWS V14.00,2013-09-18 10:11:00,
2013-09-18 06:16:00,43.4,41.2,30.20,East,97,0.0,0.0,92,0.00,,---,0.00,VWS V14.00,2013-09-18 10:16:00,
2013-09-18 06:21:00,43.4,41.2,30.20,East,97,0.0,0.0,92,0.00,,---,0.00,VWS V14.00,2013-09-18 10:21:00,
2013-09-18 06:26:00,43.3,41.1,30.20,East,97,0.0,1.0,92,0.00,,---,0.00,VWS V14.00,2013-09-18 10:26:00,
2013-09-18 06:30:00,43.3,41.1,30.20,East,97,0.0,1.0,92,0.00,,---,0.00,VWS V14.00,2013-09-18 10:30:00,
2013-09-18 06:31:00,43.4,41.5,30.20,East,98,0.0,1.0,93,0.00,,---,0.00,VWS V14.00,2013-09-18 10:31:00,
2013-09-18 06:36:00,43.5,41.6,30.20,East,97,0.0,1.0,93,0.00,,---,0.00,VWS V14.00,2013-09-18 10:36:00,
2013-09-18 06:41:00,43.6,41.7,30.20,East,97,0.0,1.0,93,0.00,,---,0.00,VWS V14.00,2013-09-18 10:41:00,
2013-09-18 06:46:00,43.9,42.0,30.20,East,97,1.0,2.0,93,0.00,,---,0.00,VWS V14.00,2013-09-18 10:46:00,
2013-09-18 06:51:00,44.1,42.2,30.20,East,97,0.0,2.0,93,0.00,,---,0.00,VWS V14.00,2013-09-18 10:51:00,
2013-09-18 06:56:00,44.3,42.4,30.20,East,97,0.0,2.0,93,0.00,,---,0.00,VWS V14.00,2013-09-18 10:56:00,
2013-09-18 07:00:00,44.3,42.4,30.20,East,97,0.0,2.0,93,0.00,,---,0.00,VWS V14.00,2013-09-18 11:00:00,
2013-09-18 07:01:00,44.6,43.0,30.20,East,97,0.0,2.0,94,0.00,,---,0.00,VWS V14.00,2013-09-18 11:01:00,
2013-09-18 07:06:00,44.8,42.9,30.20,East,96,0.0,2.0,93,0.00,,---,0.00,VWS V14.00,2013-09-18 11:06:00,
2013-09-18 07:11:00,44.9,43.0,30.20,East,97,0.0,2.0,93,0.00,,---,0.00,VWS V14.00,2013-09-18 11:11:00,
2013-09-18 07:17:00,44.9,43.0,30.20,East,98,0.0,2.0,93,0.00,,---,0.00,VWS V14.00,2013-09-18 11:17:00,
2013-09-18 07:22:00,44.8,42.9,30.20,East,97,0.0,2.0,93,0.00,,---,0.00,VWS V14.00,2013-09-18 11:22:00,
2013-09-18 07:27:00,44.7,42.8,30.20,East,96,0.0,2.0,93,0.00,,---,0.00,VWS V14.00,2013-09-18 11:27:00,
2013-09-18 07:30:00,44.7,42.8,30.20,East,96,0.0,2.0,93,0.00,,---,0.00,VWS V14.00,2013-09-18 11:30:00,
2013-09-18 07:32:00,44.6,42.4,30.20,East,97,0.0,0.0,92,0.00,,---,0.00,VWS V14.00,2013-09-18 11:32:00,
2013-09-18 07:37:00,44.5,42.6,30.21,East,97,0.0,0.0,93,0.00,,---,0.00,VWS V14.00,2013-09-18 11:37:00,
2013-09-18 07:42:00,44.7,42.8,30.21,East,96,0.0,0.0,93,0.00,,---,0.00,VWS V14.00,2013-09-18 11:42:00,
2013-09-18 07:47:00,45.1,43.2,30.21,East,97,0.0,0.0,93,0.00,,---,0.00,VWS V14.00,2013-09-18 11:47:00,
2013-09-18 07:52:00,45.5,43.6,30.20,East,97,0.0,1.0,93,0.00,,---,0.00,VWS V14.00,2013-09-18 11:52:00,
2013-09-18 07:57:00,46.0,44.1,30.20,East,96,0.0,1.0,93,0.00,,---,0.00,VWS V14.00,2013-09-18 11:57:00,
2013-09-18 08:00:00,46.0,44.1,30.20,East,97,0.0,1.0,93,0.00,,---,0.00,VWS V14.00,2013-09-18 12:00:00,
2013-09-18 08:02:00,46.5,44.3,30.20,East,97,0.0,2.0,92,0.00,,---,0.00,VWS V14.00,2013-09-18 12:02:00,
2013-09-18 08:07:00,47.1,44.9,30.20,East,98,0.0,2.0,92,0.00,,---,0.00,VWS V14.00,2013-09-18 12:07:00,
2013-09-18 08:12:00,47.9,45.4,30.20,East,98,0.0,2.0,91,0.00,,---,0.00,VWS V14.00,2013-09-18 12:12:00,
2013-09-18 08:17:00,48.8,46.3,30.20,East,97,0.0,2.0,91,0.00,,---,0.00,VWS V14.00,2013-09-18 12:17:00,
2013-09-18 08:22:00,49.5,46.4,30.20,East,97,0.0,2.0,89,0.00,,---,0.00,VWS V14.00,2013-09-18 12:22:00,
2013-09-18 08:27:00,50.1,47.0,30.20,East,97,1.0,1.0,89,0.00,,---,0.00,VWS V14.00,2013-09-18 12:27:00,
2013-09-18 08:30:00,50.1,47.0,30.20,East,97,1.0,2.0,89,0.00,,---,0.00,VWS V14.00,2013-09-18 12:30:00,
2013-09-18 08:32:00,50.7,47.3,30.20,East,97,0.0,1.0,88,0.00,,---,0.00,VWS V14.00,2013-09-18 12:32:00,
2013-09-18 08:37:00,51.2,47.5,30.20,East,97,0.0,1.0,87,0.00,,---,0.00,VWS V14.00,2013-09-18 12:37:00,
2013-09-18 08:42:00,51.2,47.2,30.20,East,98,0.0,2.0,86,0.00,,---,0.00,VWS V14.00,2013-09-18 12:42:00,
2013-09-18 08:47:00,51.2,47.5,30.20,East,97,0.0,2.0,87,0.00,,---,0.00,VWS V14.00,2013-09-18 12:47:00,
2013-09-18 08:52:00,51.4,47.7,30.20,East,97,0.0,2.0,87,0.00,,---,0.00,VWS V14.00,2013-09-18 12:52:00,
2013-09-18 08:57:00,51.8,48.1,30.20,East,97,1.0,2.0,87,0.00,,---,0.00,VWS V14.00,2013-09-18 12:57:00,
2013-09-18 09:00:00,51.8,48.1,30.20,East,97,2.0,4.0,87,0.00,,---,0.00,VWS V14.00,2013-09-18 13:00:00,
2013-09-18 09:02:00,51.9,48.2,30.20,East,97,2.0,4.0,87,0.00,,---,0.00,VWS V14.00,2013-09-18 13:02:00,
2013-09-18 09:07:00,51.9,48.2,30.20,East,97,0.0,4.0,87,0.00,,---,0.00,VWS V14.00,2013-09-18 13:07:00,
2013-09-18 09:12:00,52.4,49.0,30.20,East,97,0.0,4.0,88,0.00,,---,0.00,VWS V14.00,2013-09-18 13:12:00,
2013-09-18 09:17:00,53.2,49.4,30.20,East,97,2.0,4.0,87,0.00,,---,0.00,VWS V14.00,2013-09-18 13:17:00,
2013-09-18 09:22:00,53.9,49.8,30.20,East,97,4.0,6.0,86,0.00,,---,0.00,VWS V14.00,2013-09-18 13:22:00,
2013-09-18 09:27:00,54.6,50.5,30.20,East,96,4.0,6.0,86,0.00,,---,0.00,VWS V14.00,2013-09-18 13:27:00,
2013-09-18 09:30:00,54.5,50.4,30.20,East,98,4.0,6.0,86,0.00,,---,0.00,VWS V14.00,2013-09-18 13:30:00,
2013-09-18 09:32:00,55.3,50.9,30.20,East,97,1.0,6.0,85,0.00,,---,0.00,VWS V14.00,2013-09-18 13:32:00,
2013-09-18 09:37:00,56.3,51.5,30.19,East,99,5.0,6.0,84,0.00,,---,0.00,VWS V14.00,2013-09-18 13:37:00,
2013-09-18 09:42:00,57.2,52.1,30.19,East,98,4.0,6.0,83,0.00,,---,0.00,VWS V14.00,2013-09-18 13:42:00,
2013-09-18 09:47:00,58.3,52.5,30.19,SSE,150,2.0,7.0,81,0.00,,---,0.00,VWS V14.00,2013-09-18 13:47:00,
2013-09-18 09:52:00,58.8,52.7,30.19,SSE,150,4.0,7.0,80,0.00,,---,0.00,VWS V14.00,2013-09-18 13:52:00,
2013-09-18 09:57:00,59.4,53.2,30.19,SSE,149,5.0,5.0,80,0.00,,---,0.00,VWS V14.00,2013-09-18 13:57:00,
2013-09-18 10:00:00,59.2,53.0,30.19,SSE,150,0.0,7.0,80,0.00,,---,0.00,VWS V14.00,2013-09-18 14:00:00,
2013-09-18 10:02:00,60.4,53.5,30.19,SSE,153,2.0,6.0,78,0.00,,---,0.00,VWS V14.00,2013-09-18 14:02:00,
2013-09-18 10:07:00,61.2,53.6,30.19,SSE,159,5.0,9.0,76,0.00,,---,0.00,VWS V14.00,2013-09-18 14:07:00,
2013-09-18 10:12:00,61.8,53.8,30.19,SW,222,4.0,9.0,75,0.00,,---,0.00,VWS V14.00,2013-09-18 14:12:00,
2013-09-18 10:17:00,62.0,54.0,30.19,South,189,1.0,9.0,75,0.00,,---,0.00,VWS V14.00,2013-09-18 14:17:00,
2013-09-18 10:22:00,62.9,54.1,30.19,SSE,155,4.0,11.0,73,0.00,,---,0.00,VWS V14.00,2013-09-18 14:22:00,
2013-09-18 10:27:00,63.7,54.1,30.19,South,189,4.0,5.0,71,0.00,,---,0.00,VWS V14.00,2013-09-18 14:27:00,
2013-09-18 10:30:00,63.6,54.4,30.19,South,175,4.0,11.0,72,0.00,,---,0.00,VWS V14.00,2013-09-18 14:30:00,
2013-09-18 10:32:00,64.2,54.6,30.19,SSW,192,0.0,6.0,71,0.00,,---,0.00,VWS V14.00,2013-09-18 14:32:00,
2013-09-18 10:38:00,64.6,54.2,30.19,SSW,212,3.0,7.0,69,0.00,,---,0.00,VWS V14.00,2013-09-18 14:38:00,
2013-09-18 10:43:00,64.6,54.6,30.19,SSW,208,6.0,8.0,70,0.00,,---,0.00,VWS V14.00,2013-09-18 14:43:00,
2013-09-18 10:48:00,64.7,54.3,30.19,WSW,246,3.0,9.0,69,0.00,,---,0.00,VWS V14.00,2013-09-18 14:48:00,
2013-09-18 10:53:00,65.1,54.3,30.19,WSW,245,3.0,9.0,68,0.00,,---,0.00,VWS V14.00,2013-09-18 14:53:00,
2013-09-18 10:58:00,64.8,54.4,30.18,SW,218,3.0,3.0,69,0.00,,---,0.00,VWS V14.00,2013-09-18 14:58:00,
2013-09-18 11:00:00,59.2,53.0,30.19,SSE,150,0.0,7.0,80,0.00,,---,0.00,VWS V14.00,2013-09-18 15:00:00,
2013-09-18 11:03:00,65.2,54.8,30.18,SW,217,1.0,7.0,69,0.00,,---,0.00,VWS V14.00,2013-09-18 15:03:00,
2013-09-18 11:08:00,65.8,55.0,30.18,SW,215,0.0,7.0,68,0.00,,---,0.00,VWS V14.00,2013-09-18 15:08:00,
2013-09-18 11:13:00,66.1,54.8,30.17,SW,215,3.0,9.0,67,0.00,,---,0.00,VWS V14.00,2013-09-18 15:13:00,
2013-09-18 11:18:00,66.2,54.9,30.17,SSW,198,4.0,9.0,67,0.00,,---,0.00,VWS V14.00,2013-09-18 15:18:00,
2013-09-18 11:23:00,66.8,55.5,30.17,SW,221,4.0,9.0,67,0.00,,---,0.00,VWS V14.00,2013-09-18 15:23:00,
2013-09-18 11:28:00,67.1,55.0,30.17,SSW,203,6.0,8.0,65,0.00,,---,0.00,VWS V14.00,2013-09-18 15:28:00,
2013-09-18 11:30:00,67.1,55.4,30.17,SW,219,6.0,10.0,66,0.00,,---,0.00,VWS V14.00,2013-09-18 15:30:00,
2013-09-18 11:33:00,67.5,55.3,30.17,SSW,213,5.0,11.0,65,0.00,,---,0.00,VWS V14.00,2013-09-18 15:33:00,
2013-09-18 11:38:00,68.0,55.4,30.17,West,266,4.0,11.0,64,0.00,,---,0.00,VWS V14.00,2013-09-18 15:38:00,
2013-09-18 11:43:00,68.4,55.8,30.17,SSW,213,7.0,11.0,64,0.00,,---,0.00,VWS V14.00,2013-09-18 15:43:00,
2013-09-18 11:48:00,68.9,56.2,30.16,WSW,240,4.0,11.0,64,0.00,,---,0.00,VWS V14.00,2013-09-18 15:48:00,
2013-09-18 11:53:00,69.6,56.5,30.16,West,267,6.0,11.0,63,0.00,,---,0.00,VWS V14.00,2013-09-18 15:53:00,
2013-09-18 11:58:00,69.9,56.3,30.16,SSW,209,5.0,8.0,62,0.00,,---,0.00,VWS V14.00,2013-09-18 15:58:00,
2013-09-18 12:00:00,69.8,55.8,30.16,SSW,202,1.0,11.0,61,0.00,,---,0.00,VWS V14.00,2013-09-18 16:00:00,
2013-09-18 12:03:00,70.1,56.5,30.16,SSW,201,4.0,8.0,62,0.00,,---,0.00,VWS V14.00,2013-09-18 16:03:00,
2013-09-18 12:08:00,70.6,56.1,30.15,SSW,195,3.0,8.0,60,0.00,,---,0.00,VWS V14.00,2013-09-18 16:08:00,
2013-09-18 12:13:00,70.8,56.2,30.15,SSW,209,5.0,8.0,60,0.00,,---,0.00,VWS V14.00,2013-09-18 16:13:00,
2013-09-18 12:18:00,71.2,56.6,30.15,SSE,160,6.0,9.0,60,0.00,,---,0.00,VWS V14.00,2013-09-18 16:18:00,
2013-09-18 12:23:00,71.6,57.0,30.15,SSE,161,2.0,10.0,60,0.00,,---,0.00,VWS V14.00,2013-09-18 16:23:00,
2013-09-18 12:28:00,72.0,56.4,30.15,SW,227,10.0,10.0,58,0.00,,---,0.00,VWS V14.00,2013-09-18 16:28:00,
2013-09-18 12:30:00,71.9,56.8,30.15,SW,236,2.0,10.0,59,0.00,,---,0.00,VWS V14.00,2013-09-18 16:30:00,
2013-09-18 12:33:00,71.9,55.9,30.15,SW,214,4.0,12.0,57,0.00,,---,0.00,VWS V14.00,2013-09-18 16:33:00,
2013-09-18 12:38:00,72.1,56.5,30.15,SSW,210,4.0,12.0,58,0.00,,---,0.00,VWS V14.00,2013-09-18 16:38:00,
2013-09-18 12:43:00,72.7,56.6,30.14,SSE,160,2.0,12.0,57,0.00,,---,0.00,VWS V14.00,2013-09-18 16:43:00,
2013-09-18 12:48:00,73.1,56.5,30.14,South,173,2.0,12.0,56,0.00,,---,0.00,VWS V14.00,2013-09-18 16:48:00,
2013-09-18 12:57:00,73.9,56.7,30.13,SSW,213,4.0,12.0,55,0.00,,---,0.00,VWS V14.00,2013-09-18 16:57:00,
2013-09-18 13:00:00,69.8,55.8,30.16,SSW,202,1.0,11.0,61,0.00,,---,0.00,VWS V14.00,2013-09-18 17:00:00,
2013-09-18 13:04:00,73.9,57.2,30.13,SSE,153,7.0,12.0,56,0.00,,---,0.00,VWS V14.00,2013-09-18 17:04:00,
2013-09-18 13:09:00,74.0,56.3,30.13,SW,227,9.0,12.0,54,0.00,,---,0.00,VWS V14.00,2013-09-18 17:09:00,
2013-09-18 13:14:00,73.9,56.7,30.13,ESE,103,1.0,12.0,55,0.00,,---,0.00,VWS V14.00,2013-09-18 17:14:00,
2013-09-18 13:19:00,74.7,55.9,30.13,SW,220,7.0,12.0,52,0.00,,---,0.00,VWS V14.00,2013-09-18 17:19:00,
2013-09-18 13:24:00,75.3,56.5,30.13,WSW,244,7.0,12.0,52,0.00,,---,0.00,VWS V14.00,2013-09-18 17:24:00,
2013-09-18 13:29:00,74.8,55.5,30.12,South,184,3.0,13.0,51,0.00,,---,0.00,VWS V14.00,2013-09-18 17:29:00,
2013-09-18 13:30:00,75.1,56.3,30.13,SSW,199,6.0,12.0,52,0.00,,---,0.00,VWS V14.00,2013-09-18 17:30:00,
2013-09-18 13:34:00,74.9,56.1,30.12,SSE,151,6.0,13.0,52,0.00,,---,0.00,VWS V14.00,2013-09-18 17:34:00,
2013-09-18 13:39:00,74.9,56.1,30.12,South,190,3.0,13.0,52,0.00,,---,0.00,VWS V14.00,2013-09-18 17:39:00,
2013-09-18 13:44:00,74.9,55.6,30.12,SW,228,2.0,13.0,51,0.00,,---,0.00,VWS V14.00,2013-09-18 17:44:00,
2013-09-18 13:49:00,75.6,55.7,30.12,SSE,157,7.0,13.0,50,0.00,,---,0.00,VWS V14.00,2013-09-18 17:49:00,
2013-09-18 13:54:00,75.9,56.5,30.11,SW,221,5.0,13.0,51,0.00,,---,0.00,VWS V14.00,2013-09-18 17:54:00,
2013-09-18 13:59:00,76.2,56.2,30.11,SSE,158,5.0,11.0,50,0.00,,---,0.00,VWS V14.00,2013-09-18 17:59:00,
2013-09-18 14:00:00,76.0,56.6,30.11,South,180,2.0,13.0,51,0.00,,---,0.00,VWS V14.00,2013-09-18 18:00:00,
2013-09-18 14:04:00,75.9,55.4,30.11,ESE,115,8.0,15.0,49,0.00,,---,0.00,VWS V14.00,2013-09-18 18:04:00,
2013-09-18 14:09:00,75.9,56.5,30.11,SSW,205,4.0,15.0,51,0.00,,---,0.00,VWS V14.00,2013-09-18 18:09:00,
2013-09-18 14:14:00,76.0,55.5,30.11,SSW,209,5.0,15.0,49,0.00,,---,0.00,VWS V14.00,2013-09-18 18:14:00,
2013-09-18 14:19:00,76.1,55.6,30.11,WSW,252,9.0,15.0,49,0.00,,---,0.00,VWS V14.00,2013-09-18 18:19:00,
2013-09-18 14:24:00,76.0,54.3,30.10,South,169,4.0,15.0,47,0.00,,---,0.00,VWS V14.00,2013-09-18 18:24:00,
2013-09-18 14:29:00,76.5,53.6,30.10,South,171,4.0,15.0,45,0.00,,---,0.00,VWS V14.00,2013-09-18 18:29:00,
2013-09-18 14:30:00,76.2,53.9,30.10,SSE,165,11.0,15.0,46,0.00,,---,0.00,VWS V14.00,2013-09-18 18:30:00,
2013-09-18 14:34:00,76.7,54.4,30.09,SSE,155,11.0,15.0,46,0.00,,---,0.00,VWS V14.00,2013-09-18 18:34:00,
2013-09-18 14:39:00,76.8,53.3,30.09,ESE,106,8.0,15.0,44,0.00,,---,0.00,VWS V14.00,2013-09-18 18:39:00,
2013-09-18 14:44:00,77.2,53.6,30.09,SSE,157,13.0,15.0,44,0.00,,---,0.00,VWS V14.00,2013-09-18 18:44:00,
2013-09-18 14:50:00,77.2,51.7,30.09,SE,138,4.0,16.0,41,0.00,,---,0.00,VWS V14.00,2013-09-18 18:50:00,
2013-09-18 14:55:00,77.3,53.1,30.09,SW,233,6.0,16.0,43,0.00,,---,0.00,VWS V14.00,2013-09-18 18:55:00,
2013-09-18 15:00:00,77.3,53.1,30.09,SW,219,11.0,16.0,43,0.00,,---,0.00,VWS V14.00,2013-09-18 19:00:00,
2013-09-18 15:05:00,77.5,53.9,30.08,South,180,3.0,16.0,44,0.00,,---,0.00,VWS V14.00,2013-09-18 19:05:00,
2013-09-18 15:10:00,77.7,54.1,30.08,SW,217,6.0,16.0,44,0.00,,---,0.00,VWS V14.00,2013-09-18 19:10:00,
2013-09-18 15:15:00,77.4,53.8,30.08,WSW,238,6.0,16.0,44,0.00,,---,0.00,VWS V14.00,2013-09-18 19:15:00,
2013-09-18 15:20:00,77.6,55.2,30.08,SSW,198,5.0,16.0,46,0.00,,---,0.00,VWS V14.00,2013-09-18 19:20:00,
2013-09-18 15:26:00,77.8,54.2,30.08,SSW,201,4.0,16.0,44,0.00,,---,0.00,VWS V14.00,2013-09-18 19:26:00,
2013-09-18 15:30:00,77.8,54.2,30.08,SSW,201,4.0,16.0,44,0.00,,---,0.00,VWS V14.00,2013-09-18 19:30:00,
2013-09-18 15:35:00,78.1,54.4,30.08,SW,216,11.0,17.0,44,0.00,,---,0.00,VWS V14.00,2013-09-18 19:35:00,
2013-09-18 15:40:00,78.1,54.4,30.07,SE,142,17.0,17.0,44,0.00,,---,0.00,VWS V14.00,2013-09-18 19:40:00,
2013-09-18 15:45:00,78.3,54.6,30.07,SSE,150,6.0,17.0,44,0.00,,---,0.00,VWS V14.00,2013-09-18 19:45:00,
2013-09-18 15:50:00,78.2,54.5,30.07,SSE,152,6.0,17.0,44,0.00,,---,0.00,VWS V14.00,2013-09-18 19:50:00,
2013-09-18 15:55:00,77.8,54.8,30.07,SSW,202,3.0,17.0,45,0.00,,---,0.00,VWS V14.00,2013-09-18 19:55:00,
2013-09-18 16:00:00,78.2,53.9,30.07,South,184,2.0,14.0,43,0.00,,---,0.00,VWS V14.00,2013-09-18 20:00:00,
2013-09-18 16:05:00,78.2,53.9,30.07,SW,229,7.0,14.0,43,0.00,,---,0.00,VWS V14.00,2013-09-18 20:05:00,
2013-09-18 16:11:00,77.9,54.3,30.06,SSW,212,8.0,14.0,44,0.00,,---,0.00,VWS V14.00,2013-09-18 20:11:00,
2013-09-18 16:16:00,77.9,54.3,30.06,SW,219,2.0,14.0,44,0.00,,---,0.00,VWS V14.00,2013-09-18 20:16:00,
2013-09-18 16:21:00,78.2,54.5,30.06,SW,216,11.0,14.0,44,0.00,,---,0.00,VWS V14.00,2013-09-18 20:21:00,
2013-09-18 16:26:00,78.0,54.3,30.06,South,191,4.0,14.0,44,0.00,,---,0.00,VWS V14.00,2013-09-18 20:26:00,
2013-09-18 16:30:00,77.9,54.3,30.06,SSW,203,10.0,14.0,44,0.00,,---,0.00,VWS V14.00,2013-09-18 20:30:00,
2013-09-18 16:31:00,77.5,54.5,30.06,SW,215,2.0,12.0,45,0.00,,---,0.00,VWS V14.00,2013-09-18 20:31:00,
2013-09-18 16:36:00,77.5,54.5,30.06,SE,132,22.0,25.0,45,0.00,,---,0.00,VWS V14.00,2013-09-18 20:36:00,
2013-09-18 16:41:00,77.4,54.4,30.06,SW,214,9.0,25.0,45,0.00,,---,0.00,VWS V14.00,2013-09-18 20:41:00,
2013-09-18 16:46:00,77.5,54.5,30.06,SSE,154,6.0,25.0,45,0.00,,---,0.00,VWS V14.00,2013-09-18 20:46:00,
2013-09-18 16:51:00,77.9,54.9,30.06,SSW,212,5.0,25.0,45,0.00,,---,0.00,VWS V14.00,2013-09-18 20:51:00,
2013-09-18 16:56:00,77.9,54.9,30.06,SSE,148,5.0,25.0,45,0.00,,---,0.00,VWS V14.00,2013-09-18 20:56:00,
2013-09-18 17:00:00,77.9,54.9,30.06,SSE,153,11.0,25.0,45,0.00,,---,0.00,VWS V14.00,2013-09-18 21:00:00,
2013-09-18 17:01:00,77.6,54.6,30.05,SSW,211,7.0,12.0,45,0.00,,---,0.00,VWS V14.00,2013-09-18 21:01:00,
2013-09-18 17:06:00,77.5,55.1,30.05,SSE,153,5.0,12.0,46,0.00,,---,0.00,VWS V14.00,2013-09-18 21:06:00,
2013-09-18 17:11:00,77.7,55.3,30.05,SSW,209,5.0,12.0,46,0.00,,---,0.00,VWS V14.00,2013-09-18 21:11:00,
2013-09-18 17:16:00,77.9,54.9,30.05,SSE,165,6.0,12.0,45,0.00,,---,0.00,VWS V14.00,2013-09-18 21:16:00,
2013-09-18 17:21:00,78.1,55.0,30.05,SW,219,5.0,12.0,45,0.00,,---,0.00,VWS V14.00,2013-09-18 21:21:00,
2013-09-18 17:26:00,77.8,55.4,30.05,SSE,162,5.0,14.0,46,0.00,,---,0.00,VWS V14.00,2013-09-18 21:26:00,
2013-09-18 17:30:00,77.8,55.4,30.05,South,184,3.0,14.0,46,0.00,,---,0.00,VWS V14.00,2013-09-18 21:30:00,
2013-09-18 17:31:00,77.7,54.7,30.05,South,180,1.0,11.0,45,0.00,,---,0.00,VWS V14.00,2013-09-18 21:31:00,
2013-09-18 17:36:00,77.5,54.5,30.05,South,191,4.0,11.0,45,0.00,,---,0.00,VWS V14.00,2013-09-18 21:36:00,
2013-09-18 17:41:00,77.5,54.5,30.05,SSE,150,6.0,11.0,45,0.00,,---,0.00,VWS V14.00,2013-09-18 21:41:00,
2013-09-18 17:46:00,77.4,55.0,30.04,SSE,156,1.0,11.0,46,0.00,,---,0.00,VWS V14.00,2013-09-18 21:46:00,
2013-09-18 17:51:00,77.4,55.0,30.05,SSW,196,3.0,11.0,46,0.00,,---,0.00,VWS V14.00,2013-09-18 21:51:00,
2013-09-18 17:56:00,77.3,54.3,30.04,SSW,211,10.0,11.0,45,0.00,,---,0.00,VWS V14.00,2013-09-18 21:56:00,
2013-09-18 18:00:00,77.3,54.3,30.04,SSW,206,5.0,11.0,45,0.00,,---,0.00,VWS V14.00,2013-09-18 22:00:00,
2013-09-18 18:01:00,77.2,54.8,30.04,SE,134,4.0,13.0,46,0.00,,---,0.00,VWS V14.00,2013-09-18 22:01:00,
2013-09-18 18:06:00,77.0,54.1,30.04,SSE,151,8.0,14.0,45,0.00,,---,0.00,VWS V14.00,2013-09-18 22:06:00,
2013-09-18 18:11:00,76.9,54.6,30.03,SSE,150,2.0,14.0,46,0.00,,---,0.00,VWS V14.00,2013-09-18 22:11:00,
2013-09-18 18:16:00,76.8,55.1,30.03,SSE,153,4.0,14.0,47,0.00,,---,0.00,VWS V14.00,2013-09-18 22:16:00,
2013-09-18 18:21:00,76.7,55.5,30.04,SSE,160,6.0,14.0,48,0.00,,---,0.00,VWS V14.00,2013-09-18 22:21:00,
2013-09-18 18:26:00,76.5,55.4,30.03,SSE,167,8.0,14.0,48,0.00,,---,0.00,VWS V14.00,2013-09-18 22:26:00,
2013-09-18 18:30:00,76.5,55.4,30.03,SSE,167,8.0,14.0,48,0.00,,---,0.00,VWS V14.00,2013-09-18 22:30:00,
2013-09-18 18:31:00,76.2,54.5,30.03,SE,141,5.0,9.0,47,0.00,,---,0.00,VWS V14.00,2013-09-18 22:31:00,
2013-09-18 18:36:00,76.0,54.9,30.03,SSE,155,0.0,11.0,48,0.00,,---,0.00,VWS V14.00,2013-09-18 22:36:00,
2013-09-18 18:41:00,75.8,54.7,30.03,SSE,152,7.0,11.0,48,0.00,,---,0.00,VWS V14.00,2013-09-18 22:41:00,
2013-09-18 18:47:00,75.7,55.2,30.03,SSE,164,5.0,11.0,49,0.00,,---,0.00,VWS V14.00,2013-09-18 22:47:00,
2013-09-18 18:57:00,75.5,55.0,30.04,South,175,4.0,11.0,49,0.00,,---,0.00,VWS V14.00,2013-09-18 22:57:00,
2013-09-18 19:00:00,75.5,55.0,30.04,South,175,4.0,11.0,49,0.00,,---,0.00,VWS V14.00,2013-09-18 23:00:00,
2013-09-18 19:02:00,75.3,55.4,30.04,SSE,157,1.0,8.0,50,0.00,,---,0.00,VWS V14.00,2013-09-18 23:02:00,
2013-09-18 19:07:00,75.2,55.3,30.04,SSE,157,2.0,8.0,50,0.00,,---,0.00,VWS V14.00,2013-09-18 23:07:00,
2013-09-18 19:12:00,74.8,55.5,30.04,SSE,156,2.0,9.0,51,0.00,,---,0.00,VWS V14.00,2013-09-18 23:12:00,
2013-09-18 19:17:00,74.5,55.2,30.04,South,178,5.0,9.0,51,0.00,,---,0.00,VWS V14.00,2013-09-18 23:17:00,
2013-09-18 19:22:00,74.0,55.3,30.04,SSE,157,2.0,9.0,52,0.00,,---,0.00,VWS V14.00,2013-09-18 23:22:00,
2013-09-18 19:27:00,73.7,55.0,30.04,SSE,157,5.0,5.0,52,0.00,,---,0.00,VWS V14.00,2013-09-18 23:27:00,
2013-09-18 19:30:00,73.7,55.0,30.04,SSE,157,2.0,9.0,52,0.00,,---,0.00,VWS V14.00,2013-09-18 23:30:00,
2013-09-18 19:32:00,73.3,55.2,30.04,SSE,152,4.0,8.0,53,0.00,,---,0.00,VWS V14.00,2013-09-18 23:32:00,
2013-09-18 19:37:00,72.9,54.8,30.04,SSE,159,6.0,8.0,53,0.00,,---,0.00,VWS V14.00,2013-09-18 23:37:00,
2013-09-18 19:42:00,72.5,54.9,30.04,SSE,158,5.0,8.0,54,0.00,,---,0.00,VWS V14.00,2013-09-18 23:42:00,
2013-09-18 19:47:00,72.0,55.0,30.04,SE,141,4.0,8.0,55,0.00,,---,0.00,VWS V14.00,2013-09-18 23:47:00,
2013-09-18 19:52:00,71.6,54.6,30.04,SSE,161,5.0,8.0,55,0.00,,---,0.00,VWS V14.00,2013-09-18 23:52:00,
2013-09-18 19:57:00,71.3,54.8,30.04,SSE,150,5.0,6.0,56,0.00,,---,0.00,VWS V14.00,2013-09-18 23:57:00,
2013-09-18 20:00:00,71.4,54.9,30.04,SSE,150,5.0,8.0,56,0.00,,---,0.00,VWS V14.00,2013-09-19 00:00:00,
2013-09-18 20:02:00,71.0,55.0,30.04,SSE,152,1.0,7.0,57,0.00,,---,0.00,VWS V14.00,2013-09-19 00:02:00,
2013-09-18 20:07:00,70.7,54.7,30.04,SSE,152,4.0,7.0,57,0.00,,---,0.00,VWS V14.00,2013-09-19 00:07:00,
2013-09-18 20:12:00,70.3,54.8,30.04,SSE,152,5.0,7.0,58,0.00,,---,0.00,VWS V14.00,2013-09-19 00:12:00,
2013-09-18 20:17:00,69.9,54.9,30.04,SSE,152,4.0,7.0,59,0.00,,---,0.00,VWS V14.00,2013-09-19 00:17:00,
2013-09-18 20:22:00,69.6,54.7,30.04,SSE,152,1.0,7.0,59,0.00,,---,0.00,VWS V14.00,2013-09-19 00:22:00,
2013-09-18 20:27:00,69.3,54.8,30.04,SSE,152,1.0,1.0,60,0.00,,---,0.00,VWS V14.00,2013-09-19 00:27:00,
2013-09-18 20:30:00,69.3,54.8,30.04,SSE,152,1.0,7.0,60,0.00,,---,0.00,VWS V14.00,2013-09-19 00:30:00,
2013-09-18 20:32:00,69.1,54.7,30.05,SSE,152,2.0,6.0,60,0.00,,---,0.00,VWS V14.00,2013-09-19 00:32:00,
2013-09-18 20:37:00,69.0,55.0,30.05,SSE,152,1.0,6.0,61,0.00,,---,0.00,VWS V14.00,2013-09-19 00:37:00,
2013-09-18 20:43:00,68.8,54.8,30.05,SSE,151,0.0,6.0,61,0.00,,---,0.00,VWS V14.00,2013-09-19 00:43:00,
2013-09-18 20:48:00,68.4,54.9,30.05,SSE,152,2.0,6.0,62,0.00,,---,0.00,VWS V14.00,2013-09-19 00:48:00,
2013-09-18 20:57:00,68.1,54.6,30.05,SSE,152,1.0,6.0,62,0.00,,---,0.00,VWS V14.00,2013-09-19 00:57:00,
2013-09-18 21:00:00,68.1,54.6,30.05,SSE,152,1.0,6.0,62,0.00,,---,0.00,VWS V14.00,2013-09-19 01:00:00,
2013-09-18 21:03:00,68.1,54.6,30.05,SE,133,1.0,6.0,62,0.00,,---,0.00,VWS V14.00,2013-09-19 01:03:00,
2013-09-18 21:08:00,68.1,54.6,30.05,SE,133,4.0,6.0,62,0.00,,---,0.00,VWS V14.00,2013-09-19 01:08:00,
2013-09-18 21:13:00,68.0,54.5,30.05,ESE,108,2.0,6.0,62,0.00,,---,0.00,VWS V14.00,2013-09-19 01:13:00,
2013-09-18 21:18:00,67.8,54.8,30.05,ESE,107,2.0,6.0,63,0.00,,---,0.00,VWS V14.00,2013-09-19 01:18:00,
2013-09-18 21:23:00,67.7,54.7,30.06,ESE,109,5.0,6.0,63,0.00,,---,0.00,VWS V14.00,2013-09-19 01:23:00,
2013-09-18 21:28:00,67.6,54.6,30.05,ESE,119,4.0,5.0,63,0.00,,---,0.00,VWS V14.00,2013-09-19 01:28:00,
2013-09-18 21:30:00,67.6,54.6,30.06,ESE,119,5.0,7.0,63,0.00,,---,0.00,VWS V14.00,2013-09-19 01:30:00,
2013-09-18 21:38:00,67.6,54.6,30.06,ESE,119,1.0,6.0,63,0.00,,---,0.00,VWS V14.00,2013-09-19 01:38:00,
2013-09-18 21:43:00,67.5,54.5,30.06,ESE,120,4.0,6.0,63,0.00,,---,0.00,VWS V14.00,2013-09-19 01:43:00,
2013-09-18 21:48:00,67.5,54.5,30.06,ESE,120,5.0,7.0,63,0.00,,---,0.00,VWS V14.00,2013-09-19 01:48:00,
2013-09-18 21:53:00,67.5,54.5,30.06,ESE,121,2.0,7.0,63,0.00,,---,0.00,VWS V14.00,2013-09-19 01:53:00,
2013-09-18 21:58:00,67.6,54.6,30.06,ESE,120,5.0,5.0,63,0.00,,---,0.00,VWS V14.00,2013-09-19 01:58:00,
2013-09-18 22:00:00,67.6,54.6,30.06,ESE,121,2.0,7.0,63,0.00,,---,0.00,VWS V14.00,2013-09-19 02:00:00,
2013-09-18 22:03:00,67.7,54.2,30.05,SE,135,2.0,7.0,62,0.00,,---,0.00,VWS V14.00,2013-09-19 02:03:00,
2013-09-18 22:08:00,67.8,54.3,30.06,SSE,149,2.0,8.0,62,0.00,,---,0.00,VWS V14.00,2013-09-19 02:08:00,
2013-09-18 22:14:00,67.9,54.4,30.06,SSE,154,5.0,8.0,62,0.00,,---,0.00,VWS V14.00,2013-09-19 02:14:00,
2013-09-18 22:19:00,67.8,54.3,30.06,SE,136,2.0,8.0,62,0.00,,---,0.00,VWS V14.00,2013-09-19 02:19:00,
2013-09-18 22:24:00,67.7,54.7,30.06,ESE,123,2.0,8.0,63,0.00,,---,0.00,VWS V14.00,2013-09-19 02:24:00,
2013-09-18 22:29:00,67.6,54.6,30.05,SE,143,5.0,8.0,63,0.00,,---,0.00,VWS V14.00,2013-09-19 02:29:00,
2013-09-18 22:30:00,67.6,54.6,30.06,ESE,119,5.0,7.0,63,0.00,,---,0.00,VWS V14.00,2013-09-19 02:30:00,
2013-09-18 22:34:00,67.5,54.9,30.05,SE,144,4.0,8.0,64,0.00,,---,0.00,VWS V14.00,2013-09-19 02:34:00,
2013-09-18 22:39:00,67.4,54.8,30.05,SSE,148,6.0,8.0,64,0.00,,---,0.00,VWS V14.00,2013-09-19 02:39:00,
2013-09-18 22:44:00,67.2,55.0,30.05,ESE,105,5.0,8.0,65,0.00,,---,0.00,VWS V14.00,2013-09-19 02:44:00,
2013-09-18 22:49:00,67.0,55.3,30.05,SE,133,4.0,8.0,66,0.00,,---,0.00,VWS V14.00,2013-09-19 02:49:00,
2013-09-18 22:57:00,66.5,55.2,30.05,SE,145,4.0,8.0,67,0.00,,---,0.00,VWS V14.00,2013-09-19 02:57:00,
2013-09-18 23:00:00,66.5,55.2,30.05,SE,145,4.0,8.0,67,0.00,,---,0.00,VWS V14.00,2013-09-19 03:00:00,
2013-09-18 23:04:00,66.1,55.2,30.05,SE,124,4.0,7.0,68,0.00,,---,0.00,VWS V14.00,2013-09-19 03:04:00,
2013-09-18 23:09:00,65.9,55.0,30.05,ESE,121,4.0,7.0,68,0.00,,---,0.00,VWS V14.00,2013-09-19 03:09:00,
2013-09-18 23:14:00,65.6,55.2,30.05,ESE,121,4.0,7.0,69,0.00,,---,0.00,VWS V14.00,2013-09-19 03:14:00,
2013-09-18 23:19:00,65.3,55.3,30.05,ESE,121,5.0,7.0,70,0.00,,---,0.00,VWS V14.00,2013-09-19 03:19:00,
2013-09-18 23:24:00,65.2,55.2,30.05,SE,136,6.0,7.0,70,0.00,,---,0.00,VWS V14.00,2013-09-19 03:24:00,
2013-09-18 23:29:00,65.2,55.2,30.05,ESE,115,1.0,5.0,70,0.00,,---,0.00,VWS V14.00,2013-09-19 03:29:00,
2013-09-18 23:30:00,65.2,55.2,30.05,ESE,113,4.0,7.0,70,0.00,,---,0.00,VWS V14.00,2013-09-19 03:30:00,
2013-09-18 23:34:00,65.0,55.0,30.05,ESE,115,4.0,6.0,70,0.00,,---,0.00,VWS V14.00,2013-09-19 03:34:00,
2013-09-18 23:39:00,64.9,55.3,30.05,SE,139,1.0,7.0,71,0.00,,---,0.00,VWS V14.00,2013-09-19 03:39:00,
2013-09-18 23:44:00,64.8,55.2,30.05,SE,139,4.0,7.0,71,0.00,,---,0.00,VWS V14.00,2013-09-19 03:44:00,
2013-09-18 23:49:00,64.7,55.1,30.05,SE,139,5.0,7.0,71,0.00,,---,0.00,VWS V14.00,2013-09-19 03:49:00,
2013-09-18 23:54:00,64.5,55.3,30.05,SE,139,4.0,7.0,72,0.00,,---,0.00,VWS V14.00,2013-09-19 03:54:00,
2013-09-18 23:59:00,64.2,55.0,30.05,SE,139,2.0,5.0,72,0.00,,---,0.00,VWS V14.00,2013-09-19 03:59:00,